Time,TemperatureF,DewpointF,PressureIn,WindDirection,WindDirectionDegrees,WindSpeedMPH,WindSpeedGustMPH,Humidity,HourlyPrecipIn,Conditions,Clouds,dailyrainin,SolarRadiationWatts/m^2,SoftwareType,DateUTC
2013-01-28 00:00:00,28.8,22.2,30.47,NE,39,0.0,1.0,76,0.00,,,0.01,0,WeatherCatV1.13B119,2013-01-28 05:00:00,
2013-01-28 00:05:00,28.8,22.5,30.47,NE,39,0.0,0.0,77,0.00,,,0.00,0,WeatherCatV1.13B119,2013-01-28 05:05:00,
2013-01-28 00:10:00,28.8,22.5,30.46,NNE,12,0.0,1.0,77,0.00,,,0.00,0,WeatherCatV1.13B119,2013-01-28 05:10:00,
2013-01-28 00:14:00,28.9,22.6,30.46,NNE,12,0.0,0.0,77,0.00,,,0.00,0,WeatherCatV1.13B119,2013-01-28 05:14:00,
2013-01-28 00:19:00,28.9,22.3,30.46,NNE,12,0.0,0.0,76,0.00,,,0.00,0,WeatherCatV1.13B119,2013-01-28 05:19:00,
2013-01-28 00:23:00,28.9,22.3,30.45,NNE,21,0.0,0.0,76,0.00,,,0.00,0,WeatherCatV1.13B119,2013-01-28 05:23:00,
2013-01-28 00:28:00,29.0,22.7,30.45,NNE,25,0.0,1.0,77,0.00,,,0.00,0,WeatherCatV1.13B119,2013-01-28 05:28:00,
2013-01-28 00:33:00,29.0,22.4,30.44,NE,47,3.0,3.0,76,0.00,,,0.00,0,WeatherCatV1.13B119,2013-01-28 05:33:00,
2013-01-28 00:38:00,29.1,22.2,30.44,NE,36,0.0,1.0,75,0.00,,,0.00,0,WeatherCatV1.13B119,2013-01-28 05:38:00,
2013-01-28 00:43:00,29.2,22.9,30.45,NE,36,0.0,1.0,77,0.00,,,0.00,0,WeatherCatV1.13B119,2013-01-28 05:43:00,
2013-01-28 00:48:00,29.2,22.3,30.45,NW,314,1.0,2.0,75,0.00,,,0.00,0,WeatherCatV1.13B119,2013-01-28 05:48:00,
2013-01-28 00:53:00,29.2,22.6,30.45,NW,314,1.0,1.0,76,0.00,,,0.00,0,WeatherCatV1.13B119,2013-01-28 05:53:00,
2013-01-28 00:58:00,29.2,22.6,30.45,NW,314,1.0,1.0,76,0.00,,,0.00,0,WeatherCatV1.13B119,2013-01-28 05:58:00,
2013-01-28 01:03:00,29.2,22.0,30.45,NW,314,0.0,0.0,74,0.00,,,0.00,0,WeatherCatV1.13B119,2013-01-28 06:03:00,
2013-01-28 01:08:00,29.3,22.4,30.45,NW,314,0.0,1.0,75,0.00,,,0.00,0,WeatherCatV1.13B119,2013-01-28 06:08:00,
2013-01-28 01:13:00,29.4,23.4,30.45,NE,35,1.0,2.0,78,0.00,,,0.00,0,WeatherCatV1.13B119,2013-01-28 06:13:00,
2013-01-28 01:18:00,29.4,23.1,30.45,ENE,61,2.0,2.0,77,0.00,,,0.00,0,WeatherCatV1.13B119,2013-01-28 06:18:00,
2013-01-28 01:23:00,29.4,22.5,30.44,NE,50,0.0,2.0,75,0.00,,,0.00,0,WeatherCatV1.13B119,2013-01-28 06:23:00,
2013-01-28 01:28:00,29.4,22.5,30.44,ENE,71,0.0,1.0,75,0.00,,,0.00,0,WeatherCatV1.13B119,2013-01-28 06:28:00,
2013-01-28 01:33:00,29.4,22.5,30.44,ENE,65,0.0,2.0,75,0.00,,,0.00,0,WeatherCatV1.13B119,2013-01-28 06:33:00,
2013-01-28 01:38:00,29.5,22.6,30.44,NE,39,2.0,3.0,75,0.00,,,0.00,0,WeatherCatV1.13B119,2013-01-28 06:38:00,
2013-01-28 01:43:00,29.5,22.3,30.43,NE,38,3.0,4.0,74,0.00,,,0.00,0,WeatherCatV1.13B119,2013-01-28 06:43:00,
2013-01-28 01:48:00,29.5,22.9,30.44,NNE,28,0.0,0.0,76,0.00,,,0.00,0,WeatherCatV1.13B119,2013-01-28 06:48:00,
2013-01-28 01:53:00,29.5,23.2,30.44,NNE,28,0.0,1.0,77,0.00,,,0.00,0,WeatherCatV1.13B119,2013-01-28 06:53:00,
2013-01-28 01:58:00,29.5,22.9,30.44,NNE,28,0.0,0.0,76,0.00,,,0.00,0,WeatherCatV1.13B119,2013-01-28 06:58:00,
2013-01-28 02:03:00,29.4,22.8,30.43,NNE,28,0.0,0.0,76,0.00,,,0.00,0,WeatherCatV1.13B119,2013-01-28 07:03:00,
2013-01-28 02:08:00,29.4,23.1,30.43,NNE,28,0.0,0.0,77,0.00,,,0.00,0,WeatherCatV1.13B119,2013-01-28 07:08:00,
2013-01-28 02:13:00,29.4,22.8,30.43,NNE,28,0.0,0.0,76,0.00,,,0.00,0,WeatherCatV1.13B119,2013-01-28 07:13:00,
2013-01-28 02:18:00,29.4,22.8,30.43,NNE,28,0.0,0.0,76,0.00,,,0.00,0,WeatherCatV1.13B119,2013-01-28 07:18:00,
2013-01-28 02:23:00,29.4,22.8,30.43,NNE,28,0.0,0.0,76,0.00,,,0.00,0,WeatherCatV1.13B119,2013-01-28 07:23:00,
2013-01-28 02:28:00,29.4,23.4,30.43,NNE,28,0.0,0.0,78,0.00,,,0.00,0,WeatherCatV1.13B119,2013-01-28 07:28:00,
2013-01-28 02:33:00,29.5,23.5,30.42,NNE,28,0.0,0.0,78,0.00,,,0.00,0,WeatherCatV1.13B119,2013-01-28 07:33:00,
2013-01-28 02:38:00,29.5,23.5,30.42,NNE,28,0.0,0.0,78,0.00,,,0.00,0,WeatherCatV1.13B119,2013-01-28 07:38:00,
2013-01-28 02:43:00,29.6,23.3,30.42,NNE,28,0.0,0.0,77,0.00,,,0.00,0,WeatherCatV1.13B119,2013-01-28 07:43:00,
2013-01-28 02:48:00,29.6,23.9,30.42,NNE,28,0.0,0.0,79,0.00,,,0.00,0,WeatherCatV1.13B119,2013-01-28 07:48:00,
2013-01-28 02:53:00,29.6,23.9,30.42,NNE,28,0.0,0.0,79,0.00,,,0.00,0,WeatherCatV1.13B119,2013-01-28 07:53:00,
2013-01-28 02:58:00,29.6,23.9,30.42,NNE,28,0.0,1.0,79,0.00,,,0.00,0,WeatherCatV1.13B119,2013-01-28 07:58:00,
2013-01-28 03:03:00,29.7,24.0,30.41,NNE,28,0.0,0.0,79,0.00,,,0.00,0,WeatherCatV1.13B119,2013-01-28 08:03:00,
2013-01-28 03:08:00,29.7,23.7,30.41,NNE,28,0.0,0.0,78,0.00,,,0.00,0,WeatherCatV1.13B119,2013-01-28 08:08:00,
2013-01-28 03:13:00,29.7,23.7,30.41,NNE,28,0.0,0.0,78,0.00,,,0.00,0,WeatherCatV1.13B119,2013-01-28 08:13:00,
2013-01-28 03:18:00,29.8,24.1,30.41,NNE,28,0.0,0.0,79,0.00,,,0.00,0,WeatherCatV1.13B119,2013-01-28 08:18:00,
2013-01-28 03:23:00,29.8,24.1,30.40,NNE,28,0.0,0.0,79,0.00,,,0.00,0,WeatherCatV1.13B119,2013-01-28 08:23:00,
2013-01-28 03:29:00,29.8,23.8,30.40,NNE,28,0.0,0.0,78,0.00,,,0.00,0,WeatherCatV1.13B119,2013-01-28 08:29:00,
2013-01-28 03:34:00,29.8,24.4,30.40,NNE,28,0.0,0.0,80,0.00,,,0.00,0,WeatherCatV1.13B119,2013-01-28 08:34:00,
2013-01-28 03:39:00,29.8,25.0,30.40,NNE,28,0.0,0.0,82,0.00,,,0.00,0,WeatherCatV1.13B119,2013-01-28 08:39:00,
2013-01-28 03:44:00,29.8,24.4,30.40,NNE,28,0.0,0.0,80,0.00,,,0.00,0,WeatherCatV1.13B119,2013-01-28 08:44:00,
2013-01-28 03:49:00,29.8,24.7,30.40,NNE,28,0.0,0.0,81,0.00,,,0.00,0,WeatherCatV1.13B119,2013-01-28 08:49:00,
2013-01-28 03:54:00,29.8,25.0,30.40,NNE,28,0.0,0.0,82,0.00,,,0.00,0,WeatherCatV1.13B119,2013-01-28 08:54:00,
2013-01-28 03:59:00,29.8,25.3,30.39,NNE,29,1.0,1.0,83,0.00,,,0.00,0,WeatherCatV1.13B119,2013-01-28 08:59:00,
2013-01-28 04:04:00,29.8,25.6,30.39,SE,129,1.0,1.0,84,0.00,,,0.00,0,WeatherCatV1.13B119,2013-01-28 09:04:00,
2013-01-28 04:09:00,29.7,25.5,30.39,ESE,104,1.0,1.0,84,0.00,,,0.00,0,WeatherCatV1.13B119,2013-01-28 09:09:00,
2013-01-28 04:15:00,29.6,25.4,30.38,ESE,104,0.0,0.0,84,0.00,,,0.00,0,WeatherCatV1.13B119,2013-01-28 09:15:00,
2013-01-28 04:20:00,29.6,25.4,30.37,ESE,104,2.0,2.0,84,0.00,,,0.00,0,WeatherCatV1.13B119,2013-01-28 09:20:00,
2013-01-28 04:25:00,29.6,25.7,30.37,ESE,104,0.0,0.0,85,0.00,,,0.00,0,WeatherCatV1.13B119,2013-01-28 09:25:00,
2013-01-28 04:31:00,29.6,25.9,30.37,North,359,0.0,0.0,86,0.00,,,0.00,0,WeatherCatV1.13B119,2013-01-28 09:31:00,
2013-01-28 04:36:00,29.6,25.9,30.37,North,359,0.0,0.0,86,0.00,,,0.00,0,WeatherCatV1.13B119,2013-01-28 09:36:00,
2013-01-28 04:41:00,29.6,25.9,30.37,North,359,0.0,0.0,86,0.00,,,0.00,0,WeatherCatV1.13B119,2013-01-28 09:41:00,
2013-01-28 04:44:00,29.6,25.9,30.37,North,359,0.0,1.0,86,0.00,,,0.00,0,WeatherCatV1.13B119,2013-01-28 09:44:00,
2013-01-28 04:49:00,29.7,26.0,30.36,North,359,0.0,0.0,86,0.00,,,0.00,0,WeatherCatV1.13B119,2013-01-28 09:49:00,
2013-01-28 04:54:00,29.8,26.1,30.36,North,359,0.0,1.0,86,0.00,,,0.00,0,WeatherCatV1.13B119,2013-01-28 09:54:00,
2013-01-28 04:59:00,29.9,26.2,30.36,North,359,0.0,0.0,86,0.00,,,0.00,0,WeatherCatV1.13B119,2013-01-28 09:59:00,
2013-01-28 05:04:00,30.1,26.7,30.36,NNE,32,0.0,0.0,87,0.00,,,0.00,0,WeatherCatV1.13B119,2013-01-28 10:04:00,
2013-01-28 05:09:00,30.3,26.9,30.36,NNE,32,0.0,1.0,87,0.00,,,0.00,0,WeatherCatV1.13B119,2013-01-28 10:09:00,
2013-01-28 05:14:00,30.4,27.0,30.36,NNE,32,0.0,1.0,87,0.00,,,0.00,0,WeatherCatV1.13B119,2013-01-28 10:14:00,
2013-01-28 05:19:00,30.6,27.2,30.35,NNE,32,0.0,2.0,87,0.00,,,0.00,0,WeatherCatV1.13B119,2013-01-28 10:19:00,
2013-01-28 05:22:00,30.6,27.2,30.36,NNE,32,1.0,1.0,87,0.00,,,0.00,0,WeatherCatV1.13B119,2013-01-28 10:22:00,
2013-01-28 05:27:00,30.8,27.4,30.36,NNE,21,1.0,2.0,87,0.00,,,0.00,0,WeatherCatV1.13B119,2013-01-28 10:27:00,
2013-01-28 05:32:00,30.8,27.4,30.35,NNE,17,0.0,0.0,87,0.00,,,0.00,0,WeatherCatV1.13B119,2013-01-28 10:32:00,
2013-01-28 05:37:00,30.9,27.5,30.36,North,355,0.0,2.0,87,0.00,,,0.00,0,WeatherCatV1.13B119,2013-01-28 10:37:00,
2013-01-28 05:42:00,31.1,27.7,30.35,East,83,1.0,2.0,87,0.00,,,0.00,0,WeatherCatV1.13B119,2013-01-28 10:42:00,
2013-01-28 05:47:00,31.1,27.7,30.35,East,89,0.0,1.0,87,0.00,,,0.00,0,WeatherCatV1.13B119,2013-01-28 10:47:00,
2013-01-28 05:52:00,31.1,27.7,30.36,NNE,21,0.0,0.0,87,0.00,,,0.00,0,WeatherCatV1.13B119,2013-01-28 10:52:00,
2013-01-28 05:57:00,31.2,27.8,30.35,NNE,21,0.0,0.0,87,0.00,,,0.00,0,WeatherCatV1.13B119,2013-01-28 10:57:00,
2013-01-28 06:02:00,31.2,27.8,30.35,NNE,23,0.0,1.0,87,0.00,,,0.00,0,WeatherCatV1.13B119,2013-01-28 11:02:00,
2013-01-28 06:07:00,31.2,27.8,30.35,NNE,23,0.0,0.0,87,0.00,,,0.00,0,WeatherCatV1.13B119,2013-01-28 11:07:00,
2013-01-28 06:12:00,31.4,28.0,30.35,NNE,23,0.0,0.0,87,0.00,,,0.00,0,WeatherCatV1.13B119,2013-01-28 11:12:00,
2013-01-28 06:17:00,31.6,27.9,30.36,NNE,17,1.0,1.0,86,0.00,,,0.00,0,WeatherCatV1.13B119,2013-01-28 11:17:00,
2013-01-28 06:22:00,31.8,28.1,30.37,NNE,17,0.0,1.0,86,0.00,,,0.00,0,WeatherCatV1.13B119,2013-01-28 11:22:00,
2013-01-28 06:27:00,31.9,28.2,30.37,NNE,17,0.0,0.0,86,0.00,,,0.00,0,WeatherCatV1.13B119,2013-01-28 11:27:00,
2013-01-28 06:32:00,32.0,28.3,30.37,NNE,17,0.0,0.0,86,0.00,,,0.00,0,WeatherCatV1.13B119,2013-01-28 11:32:00,
2013-01-28 06:37:00,32.1,28.4,30.35,ESE,122,1.0,1.0,86,0.00,,,0.00,0,WeatherCatV1.13B119,2013-01-28 11:37:00,
2013-01-28 06:42:00,32.2,28.5,30.35,SE,137,1.0,1.0,86,0.00,,,0.00,0,WeatherCatV1.13B119,2013-01-28 11:42:00,
2013-01-28 06:47:00,32.1,28.4,30.34,ESE,117,1.0,2.0,86,0.00,,,0.00,0,WeatherCatV1.13B119,2013-01-28 11:47:00,
2013-01-28 06:54:00,32.0,28.6,30.34,ESE,113,1.0,1.0,87,0.00,,,0.00,0,WeatherCatV1.13B119,2013-01-28 11:54:00,
2013-01-28 06:59:00,32.0,28.3,30.34,ESE,113,0.0,0.0,86,0.00,,,0.00,0,WeatherCatV1.13B119,2013-01-28 11:59:00,
2013-01-28 07:04:00,32.0,28.3,30.35,ESE,113,0.0,0.0,86,0.00,,,0.00,0,WeatherCatV1.13B119,2013-01-28 12:04:00,
2013-01-28 07:09:00,31.9,28.2,30.34,ESE,113,0.0,0.0,86,0.00,,,0.00,0,WeatherCatV1.13B119,2013-01-28 12:09:00,
2013-01-28 07:14:00,32.0,28.3,30.34,ESE,113,0.0,0.0,86,0.00,,,0.00,0,WeatherCatV1.13B119,2013-01-28 12:14:00,
2013-01-28 07:19:00,32.0,28.3,30.34,ESE,113,0.0,0.0,86,0.00,,,0.00,0,WeatherCatV1.13B119,2013-01-28 12:19:00,
2013-01-28 07:24:00,32.0,28.3,30.33,ESE,113,0.0,1.0,86,0.00,,,0.00,0,WeatherCatV1.13B119,2013-01-28 12:24:00,
2013-01-28 07:29:00,32.1,28.4,30.34,ESE,113,0.0,0.0,86,0.00,,,0.00,0,WeatherCatV1.13B119,2013-01-28 12:29:00,
2013-01-28 07:34:00,32.1,28.4,30.34,South,169,0.0,0.0,86,0.00,,,0.00,0,WeatherCatV1.13B119,2013-01-28 12:34:00,
2013-01-28 07:39:00,32.2,28.5,30.34,South,171,0.0,0.0,86,0.00,,,0.00,0,WeatherCatV1.13B119,2013-01-28 12:39:00,
2013-01-28 07:44:00,32.2,28.5,30.34,South,171,0.0,0.0,86,0.00,,,0.00,0,WeatherCatV1.13B119,2013-01-28 12:44:00,
2013-01-28 07:48:00,32.2,28.5,30.34,South,171,0.0,0.0,86,0.00,,,0.00,0,WeatherCatV1.13B119,2013-01-28 12:48:00,
2013-01-28 07:53:00,32.3,28.6,30.33,SSE,167,0.0,1.0,86,0.00,,,0.00,5,WeatherCatV1.13B119,2013-01-28 12:53:00,
2013-01-28 07:56:00,32.4,28.7,30.34,SSE,167,0.0,1.0,86,0.00,,,0.00,5,WeatherCatV1.13B119,2013-01-28 12:56:00,
2013-01-28 08:02:00,32.5,28.8,30.34,SSE,167,0.0,0.0,86,0.00,,,0.00,7,WeatherCatV1.13B119,2013-01-28 13:02:00,
2013-01-28 08:07:00,32.6,28.9,30.33,SSE,167,0.0,1.0,86,0.00,,,0.00,9,WeatherCatV1.13B119,2013-01-28 13:07:00,
2013-01-28 08:12:00,32.7,29.0,30.33,SSE,167,0.0,0.0,86,0.00,,,0.00,11,WeatherCatV1.13B119,2013-01-28 13:12:00,
2013-01-28 08:17:00,32.8,29.1,30.33,SSE,167,0.0,1.0,86,0.00,,,0.00,11,WeatherCatV1.13B119,2013-01-28 13:17:00,
2013-01-28 08:22:00,32.8,29.1,30.33,SSE,167,0.0,1.0,86,0.00,,,0.00,12,WeatherCatV1.13B119,2013-01-28 13:22:00,
2013-01-28 08:28:00,32.8,29.1,30.33,SSE,167,0.0,0.0,86,0.00,,,0.00,16,WeatherCatV1.13B119,2013-01-28 13:28:00,
2013-01-28 08:33:00,32.9,29.2,30.33,SSE,167,0.0,0.0,86,0.00,,,0.00,14,WeatherCatV1.13B119,2013-01-28 13:33:00,
2013-01-28 08:38:00,32.9,29.2,30.33,SSE,167,0.0,0.0,86,0.00,,,0.00,14,WeatherCatV1.13B119,2013-01-28 13:38:00,
2013-01-28 08:43:00,33.0,29.3,30.32,SSE,158,0.0,2.0,86,0.00,,,0.00,18,WeatherCatV1.13B119,2013-01-28 13:43:00,
2013-01-28 08:48:00,33.0,29.3,30.32,SSE,158,0.0,0.0,86,0.00,,,0.00,21,WeatherCatV1.13B119,2013-01-28 13:48:00,
2013-01-28 08:53:00,33.1,29.4,30.32,SSE,158,0.0,1.0,86,0.00,,,0.00,21,WeatherCatV1.13B119,2013-01-28 13:53:00,
2013-01-28 08:58:00,33.2,29.5,30.32,SSE,158,0.0,0.0,86,0.00,,,0.00,19,WeatherCatV1.13B119,2013-01-28 13:58:00,
2013-01-28 09:03:00,33.2,29.5,30.31,SSE,158,2.0,2.0,86,0.00,,,0.00,23,WeatherCatV1.13B119,2013-01-28 14:03:00,
2013-01-28 09:08:00,33.3,29.6,30.31,SSW,201,0.0,0.0,86,0.00,,,0.00,35,WeatherCatV1.13B119,2013-01-28 14:08:00,
2013-01-28 09:13:00,33.4,29.7,30.31,SSW,201,0.0,0.0,86,0.00,,,0.00,46,WeatherCatV1.13B119,2013-01-28 14:13:00,
2013-01-28 09:18:00,33.5,29.8,30.31,SSW,201,0.0,0.0,86,0.00,,,0.00,44,WeatherCatV1.13B119,2013-01-28 14:18:00,
2013-01-28 09:23:00,33.5,29.8,30.31,SSW,201,0.0,0.0,86,0.00,,,0.00,47,WeatherCatV1.13B119,2013-01-28 14:23:00,
2013-01-28 09:26:00,33.5,29.8,30.31,WSW,241,0.0,1.0,86,0.00,,,0.00,62,WeatherCatV1.13B119,2013-01-28 14:26:00,
2013-01-28 09:31:00,33.6,29.9,30.30,WSW,239,0.0,1.0,86,0.00,,,0.00,69,WeatherCatV1.13B119,2013-01-28 14:31:00,
2013-01-28 09:36:00,33.7,30.0,30.30,WSW,239,0.0,0.0,86,0.00,,,0.00,62,WeatherCatV1.13B119,2013-01-28 14:36:00,
2013-01-28 09:39:00,33.7,30.0,30.30,NE,45,0.0,0.0,86,0.00,,,0.00,60,WeatherCatV1.13B119,2013-01-28 14:39:00,
2013-01-28 09:44:00,33.8,30.1,30.29,ESE,108,0.0,0.0,86,0.00,,,0.00,53,WeatherCatV1.13B119,2013-01-28 14:44:00,
2013-01-28 09:49:00,33.8,30.1,30.29,ESE,108,0.0,0.0,86,0.00,,,0.00,72,WeatherCatV1.13B119,2013-01-28 14:49:00,
2013-01-28 09:54:00,33.8,30.3,30.28,WSW,252,0.0,1.0,87,0.00,,,0.00,93,WeatherCatV1.13B119,2013-01-28 14:54:00,
2013-01-28 09:59:00,33.9,30.4,30.29,WNW,293,0.0,0.0,87,0.00,,,0.00,98,WeatherCatV1.13B119,2013-01-28 14:59:00,
2013-01-28 10:04:00,34.0,30.5,30.29,ESE,117,0.0,0.0,87,0.00,,,0.00,76,WeatherCatV1.13B119,2013-01-28 15:04:00,
2013-01-28 10:09:00,34.0,30.5,30.28,West,276,1.0,2.0,87,0.00,,,0.00,79,WeatherCatV1.13B119,2013-01-28 15:09:00,
2013-01-28 10:14:00,34.1,30.6,30.28,West,276,0.0,0.0,87,0.00,,,0.00,83,WeatherCatV1.13B119,2013-01-28 15:14:00,
2013-01-28 10:19:00,34.1,30.6,30.28,SE,135,0.0,2.0,87,0.00,,,0.00,98,WeatherCatV1.13B119,2013-01-28 15:19:00,
2013-01-28 10:24:00,34.2,30.5,30.27,SE,135,0.0,0.0,86,0.00,,,0.00,128,WeatherCatV1.13B119,2013-01-28 15:24:00,
2013-01-28 10:29:00,34.3,30.6,30.27,SSE,160,1.0,1.0,86,0.32,,,0.05,127,WeatherCatV1.13B119,2013-01-28 15:29:00,
2013-01-28 10:34:00,34.4,30.7,30.26,SSE,166,0.0,0.0,86,0.09,,,0.05,146,WeatherCatV1.13B119,2013-01-28 15:34:00,
2013-01-28 10:35:00,34.4,30.7,30.26,SSE,166,0.0,0.0,86,0.09,,,0.05,146,WeatherCatV1.13B119,2013-01-28 15:35:00,
2013-01-28 10:40:00,34.6,31.1,30.26,WSW,246,1.0,2.0,87,0.11,,,0.07,151,WeatherCatV1.13B119,2013-01-28 15:40:00,
2013-01-28 10:45:00,34.8,31.3,30.26,West,272,1.0,2.0,87,0.10,,,0.07,172,WeatherCatV1.13B119,2013-01-28 15:45:00,
2013-01-28 10:50:00,35.0,31.2,30.25,ESE,115,2.0,4.0,86,0.05,,,0.07,193,WeatherCatV1.13B119,2013-01-28 15:50:00,
2013-01-28 10:55:00,35.2,31.4,30.26,SSW,199,1.0,1.0,86,0.04,,,0.07,220,WeatherCatV1.13B119,2013-01-28 15:55:00,
2013-01-28 11:00:00,35.5,32.0,30.26,West,270,0.0,0.0,87,0.00,,,0.07,207,WeatherCatV1.13B119,2013-01-28 16:00:00,
2013-01-28 11:05:00,35.8,32.0,30.27,WNW,283,0.0,1.0,86,0.00,,,0.08,135,WeatherCatV1.13B119,2013-01-28 16:05:00,
2013-01-28 11:10:00,36.0,32.5,30.26,West,266,0.0,1.0,87,0.00,,,0.08,183,WeatherCatV1.13B119,2013-01-28 16:10:00,
2013-01-28 11:15:00,36.1,32.6,30.25,West,266,0.0,0.0,87,0.00,,,0.08,255,WeatherCatV1.13B119,2013-01-28 16:15:00,
2013-01-28 11:20:00,36.4,32.9,30.25,ESE,104,0.0,1.0,87,0.00,,,0.08,153,WeatherCatV1.13B119,2013-01-28 16:20:00,
2013-01-28 11:25:00,36.5,33.0,30.25,NW,308,1.0,2.0,87,0.00,,,0.08,79,WeatherCatV1.13B119,2013-01-28 16:25:00,
2013-01-28 11:30:00,36.5,33.0,30.25,NW,308,0.0,1.0,87,0.00,,,0.08,56,WeatherCatV1.13B119,2013-01-28 16:30:00,
2013-01-28 11:35:00,36.4,32.9,30.24,NW,308,0.0,2.0,87,0.00,,,0.08,32,WeatherCatV1.13B119,2013-01-28 16:35:00,
2013-01-28 11:40:00,36.4,32.9,30.24,NW,308,0.0,1.0,87,0.00,,,0.09,39,WeatherCatV1.13B119,2013-01-28 16:40:00,
2013-01-28 11:42:00,36.3,32.8,30.24,NW,308,0.0,1.0,87,0.00,,,0.09,42,WeatherCatV1.13B119,2013-01-28 16:42:00,
2013-01-28 11:47:00,36.2,32.7,30.23,NW,308,0.0,1.0,87,0.00,,,0.09,47,WeatherCatV1.13B119,2013-01-28 16:47:00,
2013-01-28 11:52:00,36.2,32.7,30.23,NW,308,0.0,1.0,87,0.00,,,0.09,77,WeatherCatV1.13B119,2013-01-28 16:52:00,
2013-01-28 11:57:00,36.2,32.7,30.22,NW,308,1.0,2.0,87,0.00,,,0.09,105,WeatherCatV1.13B119,2013-01-28 16:57:00,
2013-01-28 12:02:00,36.4,32.9,30.21,NW,308,0.0,0.0,87,0.00,,,0.09,151,WeatherCatV1.13B119,2013-01-28 17:02:00,
2013-01-28 12:07:00,36.7,33.2,30.21,NW,308,0.0,0.0,87,0.00,,,0.09,137,WeatherCatV1.13B119,2013-01-28 17:07:00,
2013-01-28 12:12:00,37.0,33.2,30.20,NW,308,0.0,1.0,86,0.00,,,0.09,116,WeatherCatV1.13B119,2013-01-28 17:12:00,
2013-01-28 12:17:00,37.2,33.4,30.20,SSW,196,0.0,1.0,86,0.00,,,0.09,123,WeatherCatV1.13B119,2013-01-28 17:17:00,
2013-01-28 12:22:00,37.5,33.7,30.20,SW,223,0.0,1.0,86,0.00,,,0.09,91,WeatherCatV1.13B119,2013-01-28 17:22:00,
2013-01-28 12:27:00,37.7,33.9,30.19,ESE,115,0.0,1.0,86,0.00,,,0.10,197,WeatherCatV1.13B119,2013-01-28 17:27:00,
2013-01-28 12:32:00,38.1,34.3,30.18,WSW,258,1.0,3.0,86,0.00,,,0.10,223,WeatherCatV1.13B119,2013-01-28 17:32:00,
2013-01-28 12:37:00,38.5,34.7,30.18,SW,232,1.0,1.0,86,0.00,,,0.10,178,WeatherCatV1.13B119,2013-01-28 17:37:00,
2013-01-28 12:42:00,38.7,35.2,30.18,WSW,258,1.0,1.0,87,0.00,,,0.10,102,WeatherCatV1.13B119,2013-01-28 17:42:00,
2013-01-28 12:47:00,38.7,35.2,30.18,West,273,2.0,3.0,87,0.00,,,0.10,81,WeatherCatV1.13B119,2013-01-28 17:47:00,
2013-01-28 12:52:00,38.7,35.2,30.17,WSW,248,1.0,2.0,87,0.00,,,0.10,86,WeatherCatV1.13B119,2013-01-28 17:52:00,
2013-01-28 12:57:00,38.7,35.2,30.16,WSW,248,0.0,1.0,87,0.00,,,0.10,156,WeatherCatV1.13B119,2013-01-28 17:57:00,
2013-01-28 13:02:00,38.9,35.4,30.16,West,264,1.0,2.0,87,0.00,,,0.10,214,WeatherCatV1.13B119,2013-01-28 18:02:00,
2013-01-28 13:07:00,39.1,35.6,30.16,WSW,248,0.0,4.0,87,0.00,,,0.10,105,WeatherCatV1.13B119,2013-01-28 18:07:00,
2013-01-28 13:12:00,39.1,35.6,30.16,West,259,0.0,2.0,87,0.00,,,0.11,90,WeatherCatV1.13B119,2013-01-28 18:12:00,
2013-01-28 13:17:00,39.3,35.8,30.15,WSW,254,0.0,2.0,87,0.00,,,0.11,156,WeatherCatV1.13B119,2013-01-28 18:17:00,
2013-01-28 13:22:00,39.6,36.1,30.15,West,268,1.0,2.0,87,0.00,,,0.11,221,WeatherCatV1.13B119,2013-01-28 18:22:00,
2013-01-28 13:27:00,40.0,36.4,30.15,West,267,0.0,3.0,87,0.00,,,0.11,162,WeatherCatV1.13B119,2013-01-28 18:27:00,
2013-01-28 13:32:00,40.4,36.8,30.14,West,264,0.0,1.0,87,0.00,,,0.11,225,WeatherCatV1.13B119,2013-01-28 18:32:00,
2013-01-28 13:38:00,40.9,37.3,30.13,NW,325,1.0,3.0,87,0.00,,,0.11,265,WeatherCatV1.13B119,2013-01-28 18:38:00,
2013-01-28 13:40:00,41.2,37.6,30.13,WNW,294,2.0,2.0,87,0.00,,,0.11,415,WeatherCatV1.13B119,2013-01-28 18:40:00,
2013-01-28 13:45:00,41.7,38.1,30.13,WNW,298,1.0,2.0,87,0.00,,,0.11,200,WeatherCatV1.13B119,2013-01-28 18:45:00,
2013-01-28 13:50:00,42.0,38.4,30.12,SW,223,0.0,1.0,87,0.00,,,0.11,290,WeatherCatV1.13B119,2013-01-28 18:50:00,
2013-01-28 13:55:00,42.3,38.7,30.12,SW,235,0.0,1.0,87,0.00,,,0.12,153,WeatherCatV1.13B119,2013-01-28 18:55:00,
2013-01-28 14:00:00,42.5,38.6,30.12,WSW,240,0.0,1.0,86,0.00,,,0.12,202,WeatherCatV1.13B119,2013-01-28 19:00:00,
2013-01-28 14:05:00,42.5,38.6,30.11,WSW,247,1.0,2.0,86,0.00,,,0.12,137,WeatherCatV1.13B119,2013-01-28 19:05:00,
2013-01-28 14:10:00,42.3,38.4,30.11,WSW,248,0.0,1.0,86,0.00,,,0.12,142,WeatherCatV1.13B119,2013-01-28 19:10:00,
2013-01-28 14:15:00,42.2,38.3,30.11,West,263,0.0,1.0,86,0.00,,,0.12,88,WeatherCatV1.13B119,2013-01-28 19:15:00,
2013-01-28 14:20:00,42.1,38.2,30.10,West,265,0.0,3.0,86,0.00,,,0.12,148,WeatherCatV1.13B119,2013-01-28 19:20:00,
2013-01-28 14:25:00,42.2,38.6,30.10,West,269,1.0,3.0,87,0.00,,,0.12,232,WeatherCatV1.13B119,2013-01-28 19:25:00,
2013-01-28 14:30:00,42.6,38.7,30.10,WSW,244,0.0,3.0,86,0.00,,,0.12,234,WeatherCatV1.13B119,2013-01-28 19:30:00,
2013-01-28 14:35:00,42.9,39.0,30.10,WNW,303,1.0,4.0,86,0.00,,,0.12,167,WeatherCatV1.13B119,2013-01-28 19:35:00,
2013-01-28 14:40:00,43.3,39.4,30.10,WNW,301,0.0,1.0,86,0.00,,,0.12,246,WeatherCatV1.13B119,2013-01-28 19:40:00,
2013-01-28 14:45:00,43.6,39.7,30.10,NW,307,2.0,3.0,86,0.00,,,0.12,77,WeatherCatV1.13B119,2013-01-28 19:45:00,
2013-01-28 14:50:00,43.7,39.5,30.10,NNW,337,0.0,2.0,85,0.00,,,0.12,32,WeatherCatV1.13B119,2013-01-28 19:50:00,
2013-01-28 14:55:00,43.8,39.6,30.10,NNW,337,0.0,1.0,85,0.00,,,0.12,28,WeatherCatV1.13B119,2013-01-28 19:55:00,
2013-01-28 15:00:00,43.7,39.5,30.10,NNW,337,0.0,0.0,85,0.00,,,0.12,72,WeatherCatV1.13B119,2013-01-28 20:00:00,
2013-01-28 15:05:00,43.7,39.8,30.10,NNW,337,0.0,0.0,86,0.00,,,0.12,53,WeatherCatV1.13B119,2013-01-28 20:05:00,
2013-01-28 15:10:00,43.6,39.7,30.10,NNW,337,0.0,0.0,86,0.00,,,0.12,69,WeatherCatV1.13B119,2013-01-28 20:10:00,
2013-01-28 15:15:00,43.6,40.0,30.10,North,7,0.0,2.0,87,0.00,,,0.12,91,WeatherCatV1.13B119,2013-01-28 20:15:00,
2013-01-28 15:20:00,43.7,40.1,30.10,ENE,60,1.0,2.0,87,0.00,,,0.12,97,WeatherCatV1.13B119,2013-01-28 20:20:00,
2013-01-28 15:25:00,43.7,39.8,30.10,ESE,104,1.0,2.0,86,0.00,,,0.12,49,WeatherCatV1.13B119,2013-01-28 20:25:00,
2013-01-28 15:30:00,43.6,40.0,30.10,ENE,71,1.0,2.0,87,0.00,,,0.12,46,WeatherCatV1.13B119,2013-01-28 20:30:00,
2013-01-28 15:33:00,43.6,40.0,30.10,ENE,69,1.0,2.0,87,0.00,,,0.12,49,WeatherCatV1.13B119,2013-01-28 20:33:00,
2013-01-28 15:38:00,43.4,39.8,30.10,ENE,69,0.0,1.0,87,0.00,,,0.12,35,WeatherCatV1.13B119,2013-01-28 20:38:00,
2013-01-28 15:43:00,43.3,39.7,30.10,ENE,69,0.0,0.0,87,0.00,,,0.12,30,WeatherCatV1.13B119,2013-01-28 20:43:00,
2013-01-28 15:48:00,43.2,39.6,30.10,ENE,69,0.0,0.0,87,0.00,,,0.12,33,WeatherCatV1.13B119,2013-01-28 20:48:00,
2013-01-28 15:53:00,43.2,39.6,30.09,ENE,69,0.0,0.0,87,0.00,,,0.12,23,WeatherCatV1.13B119,2013-01-28 20:53:00,
2013-01-28 15:58:00,43.1,39.5,30.09,ENE,69,0.0,0.0,87,0.00,,,0.12,16,WeatherCatV1.13B119,2013-01-28 20:58:00,
2013-01-28 16:03:00,43.0,39.4,30.09,ENE,69,0.0,0.0,87,0.00,,,0.12,12,WeatherCatV1.13B119,2013-01-28 21:03:00,
2013-01-28 16:08:00,42.9,39.3,30.09,ENE,69,0.0,0.0,87,0.00,,,0.12,14,WeatherCatV1.13B119,2013-01-28 21:08:00,
2013-01-28 16:13:00,42.8,39.2,30.09,ENE,69,0.0,0.0,87,0.00,,,0.12,28,WeatherCatV1.13B119,2013-01-28 21:13:00,
2013-01-28 16:18:00,42.7,39.1,30.09,ENE,69,0.0,0.0,87,0.00,,,0.12,23,WeatherCatV1.13B119,2013-01-28 21:18:00,
2013-01-28 16:23:00,42.6,39.0,30.09,ENE,69,0.0,0.0,87,0.00,,,0.12,14,WeatherCatV1.13B119,2013-01-28 21:23:00,
2013-01-28 16:29:00,42.5,38.9,30.09,ENE,69,0.0,0.0,87,0.00,,,0.12,11,WeatherCatV1.13B119,2013-01-28 21:29:00,
2013-01-28 16:32:00,42.5,38.9,30.09,ENE,69,0.0,0.0,87,0.00,,,0.12,12,WeatherCatV1.13B119,2013-01-28 21:32:00,
2013-01-28 16:37:00,42.4,38.8,30.09,ENE,69,0.0,0.0,87,0.00,,,0.12,9,WeatherCatV1.13B119,2013-01-28 21:37:00,
2013-01-28 16:42:00,42.4,38.8,30.09,ENE,69,0.0,0.0,87,0.00,,,0.12,19,WeatherCatV1.13B119,2013-01-28 21:42:00,
2013-01-28 16:47:00,42.2,38.6,30.09,ENE,58,2.0,3.0,87,0.00,,,0.12,11,WeatherCatV1.13B119,2013-01-28 21:47:00,
2013-01-28 16:52:00,42.0,38.1,30.09,NE,50,1.0,2.0,86,0.00,,,0.12,9,WeatherCatV1.13B119,2013-01-28 21:52:00,
2013-01-28 16:57:00,41.7,38.1,30.09,NE,44,1.0,3.0,87,0.00,,,0.12,16,WeatherCatV1.13B119,2013-01-28 21:57:00,
2013-01-28 17:02:00,41.3,37.7,30.09,NE,41,1.0,2.0,87,0.00,,,0.12,9,WeatherCatV1.13B119,2013-01-28 22:02:00,
2013-01-28 17:07:00,41.0,37.4,30.09,East,86,2.0,2.0,87,0.00,,,0.12,0,WeatherCatV1.13B119,2013-01-28 22:07:00,
2013-01-28 17:12:00,40.7,37.1,30.09,ENE,71,1.0,1.0,87,0.00,,,0.12,0,WeatherCatV1.13B119,2013-01-28 22:12:00,
2013-01-28 17:17:00,40.3,36.7,30.09,NNE,21,1.0,3.0,87,0.00,,,0.12,0,WeatherCatV1.13B119,2013-01-28 22:17:00,
2013-01-28 17:22:00,40.0,36.4,30.09,NE,46,0.0,3.0,87,0.00,,,0.12,0,WeatherCatV1.13B119,2013-01-28 22:22:00,
2013-01-28 17:27:00,39.8,36.3,30.09,NE,46,0.0,0.0,87,0.00,,,0.13,0,WeatherCatV1.13B119,2013-01-28 22:27:00,
2013-01-28 17:32:00,39.7,36.2,30.08,NE,46,0.0,0.0,87,0.00,,,0.13,0,WeatherCatV1.13B119,2013-01-28 22:32:00,
2013-01-28 17:37:00,39.6,36.1,30.09,NE,52,1.0,2.0,87,0.00,,,0.13,0,WeatherCatV1.13B119,2013-01-28 22:37:00,
2013-01-28 17:42:00,39.5,36.0,30.09,NE,51,3.0,3.0,87,0.00,,,0.13,0,WeatherCatV1.13B119,2013-01-28 22:42:00,
2013-01-28 17:47:00,39.2,35.7,30.09,NE,42,2.0,2.0,87,0.00,,,0.13,0,WeatherCatV1.13B119,2013-01-28 22:47:00,
2013-01-28 17:52:00,38.9,35.4,30.09,NE,38,2.0,2.0,87,0.00,,,0.13,0,WeatherCatV1.13B119,2013-01-28 22:52:00,
2013-01-28 17:57:00,38.7,35.2,30.09,NE,48,0.0,1.0,87,0.00,,,0.13,0,WeatherCatV1.13B119,2013-01-28 22:57:00,
2013-01-28 18:02:00,38.6,34.8,30.09,NE,48,0.0,0.0,86,0.00,,,0.13,0,WeatherCatV1.13B119,2013-01-28 23:02:00,
2013-01-28 18:07:00,38.5,34.7,30.08,NE,48,0.0,0.0,86,0.00,,,0.13,0,WeatherCatV1.13B119,2013-01-28 23:07:00,
2013-01-28 18:12:00,38.4,34.6,30.08,NE,48,1.0,1.0,86,0.00,,,0.13,0,WeatherCatV1.13B119,2013-01-28 23:12:00,
2013-01-28 18:17:00,38.4,34.6,30.08,NE,40,0.0,1.0,86,0.00,,,0.13,0,WeatherCatV1.13B119,2013-01-28 23:17:00,
2013-01-28 18:22:00,38.4,34.6,30.08,NE,40,0.0,0.0,86,0.00,,,0.13,0,WeatherCatV1.13B119,2013-01-28 23:22:00,
2013-01-28 18:29:00,38.4,34.6,30.08,NE,40,0.0,0.0,86,0.00,,,0.13,0,WeatherCatV1.13B119,2013-01-28 23:29:00,
2013-01-28 18:34:00,38.4,34.6,30.08,NE,54,0.0,0.0,86,0.00,,,0.13,0,WeatherCatV1.13B119,2013-01-28 23:34:00,
2013-01-28 18:39:00,38.5,35.0,30.08,East,92,0.0,0.0,87,0.00,,,0.13,0,WeatherCatV1.13B119,2013-01-28 23:39:00,
2013-01-28 18:44:00,38.4,34.6,30.08,East,92,0.0,0.0,86,0.00,,,0.13,0,WeatherCatV1.13B119,2013-01-28 23:44:00,
2013-01-28 18:49:00,38.3,34.5,30.08,East,92,0.0,1.0,86,0.00,,,0.13,0,WeatherCatV1.13B119,2013-01-28 23:49:00,
2013-01-28 18:54:00,38.2,34.4,30.08,East,92,0.0,0.0,86,0.00,,,0.13,0,WeatherCatV1.13B119,2013-01-28 23:54:00,
2013-01-28 18:59:00,38.2,34.4,30.08,East,92,0.0,0.0,86,0.00,,,0.13,0,WeatherCatV1.13B119,2013-01-28 23:59:00,
2013-01-28 19:04:00,38.3,34.5,30.08,East,92,0.0,0.0,86,0.00,,,0.13,0,WeatherCatV1.13B119,2013-01-29 00:04:00,
2013-01-28 19:09:00,38.3,34.8,30.08,East,92,0.0,0.0,87,0.00,,,0.13,0,WeatherCatV1.13B119,2013-01-29 00:09:00,
2013-01-28 19:14:00,38.2,34.7,30.07,ESE,108,1.0,2.0,87,0.00,,,0.13,0,WeatherCatV1.13B119,2013-01-29 00:14:00,
2013-01-28 19:19:00,38.1,34.6,30.07,East,100,0.0,0.0,87,0.00,,,0.13,0,WeatherCatV1.13B119,2013-01-29 00:19:00,
2013-01-28 19:24:00,38.0,34.5,30.08,East,81,0.0,1.0,87,0.00,,,0.13,0,WeatherCatV1.13B119,2013-01-29 00:24:00,
2013-01-28 19:29:00,38.0,34.5,30.07,ENE,69,0.0,1.0,87,0.00,,,0.13,0,WeatherCatV1.13B119,2013-01-29 00:29:00,
2013-01-28 19:34:00,37.8,34.0,30.07,ENE,66,1.0,1.0,86,0.00,,,0.13,0,WeatherCatV1.13B119,2013-01-29 00:34:00,
2013-01-28 19:37:00,37.7,33.9,30.08,NNE,21,0.0,1.0,86,0.00,,,0.13,0,WeatherCatV1.13B119,2013-01-29 00:37:00,
2013-01-28 19:42:00,37.6,34.1,30.08,NNE,27,2.0,2.0,87,0.00,,,0.13,0,WeatherCatV1.13B119,2013-01-29 00:42:00,
2013-01-28 19:47:00,37.5,34.0,30.08,NE,46,2.0,2.0,87,0.00,,,0.13,0,WeatherCatV1.13B119,2013-01-29 00:47:00,
2013-01-28 19:52:00,37.5,34.0,30.08,NE,46,0.0,0.0,87,0.00,,,0.13,0,WeatherCatV1.13B119,2013-01-29 00:52:00,
2013-01-28 19:57:00,37.5,34.0,30.07,NE,46,0.0,0.0,87,0.00,,,0.13,0,WeatherCatV1.13B119,2013-01-29 00:57:00,
2013-01-28 20:02:00,37.5,34.0,30.07,NE,46,0.0,0.0,87,0.00,,,0.13,0,WeatherCatV1.13B119,2013-01-29 01:02:00,
2013-01-28 20:07:00,37.5,34.0,30.07,NE,46,0.0,0.0,87,0.00,,,0.13,0,WeatherCatV1.13B119,2013-01-29 01:07:00,
2013-01-28 20:12:00,37.5,34.0,30.07,NE,46,0.0,0.0,87,0.00,,,0.13,0,WeatherCatV1.13B119,2013-01-29 01:12:00,
2013-01-28 20:17:00,37.5,34.0,30.07,NE,46,0.0,0.0,87,0.00,,,0.13,0,WeatherCatV1.13B119,2013-01-29 01:17:00,
2013-01-28 20:22:00,37.5,34.0,30.07,NE,46,0.0,0.0,87,0.00,,,0.13,0,WeatherCatV1.13B119,2013-01-29 01:22:00,
2013-01-28 20:27:00,37.7,34.2,30.07,NE,46,0.0,0.0,87,0.00,,,0.13,0,WeatherCatV1.13B119,2013-01-29 01:27:00,
2013-01-28 20:32:00,37.8,34.3,30.07,NE,46,0.0,0.0,87,0.00,,,0.13,0,WeatherCatV1.13B119,2013-01-29 01:32:00,
2013-01-28 20:37:00,37.8,34.3,30.07,NE,46,0.0,0.0,87,0.00,,,0.13,0,WeatherCatV1.13B119,2013-01-29 01:37:00,
2013-01-28 20:42:00,37.8,34.3,30.07,NE,46,0.0,0.0,87,0.00,,,0.13,0,WeatherCatV1.13B119,2013-01-29 01:42:00,
2013-01-28 20:47:00,37.7,34.2,30.06,NE,46,0.0,0.0,87,0.00,,,0.13,0,WeatherCatV1.13B119,2013-01-29 01:47:00,
2013-01-28 20:52:00,37.7,34.2,30.07,NE,46,0.0,0.0,87,0.00,,,0.13,0,WeatherCatV1.13B119,2013-01-29 01:52:00,
2013-01-28 20:57:00,37.7,34.2,30.07,NE,46,0.0,0.0,87,0.00,,,0.13,0,WeatherCatV1.13B119,2013-01-29 01:57:00,
2013-01-28 21:02:00,37.7,34.2,30.07,NE,46,0.0,0.0,87,0.00,,,0.13,0,WeatherCatV1.13B119,2013-01-29 02:02:00,
2013-01-28 21:07:00,37.7,34.2,30.06,NE,46,0.0,1.0,87,0.00,,,0.13,0,WeatherCatV1.13B119,2013-01-29 02:07:00,
2013-01-28 21:12:00,37.7,34.2,30.06,NE,46,0.0,0.0,87,0.00,,,0.13,0,WeatherCatV1.13B119,2013-01-29 02:12:00,
2013-01-28 21:17:00,37.6,34.1,30.06,NE,46,0.0,0.0,87,0.00,,,0.13,0,WeatherCatV1.13B119,2013-01-29 02:17:00,
2013-01-28 21:22:00,37.6,34.1,30.06,NW,314,1.0,1.0,87,0.00,,,0.13,0,WeatherCatV1.13B119,2013-01-29 02:22:00,
2013-01-28 21:24:00,37.6,34.1,30.06,NW,309,0.0,2.0,87,0.00,,,0.13,0,WeatherCatV1.13B119,2013-01-29 02:24:00,
2013-01-28 21:29:00,38.0,34.5,30.06,WSW,241,2.0,2.0,87,0.00,,,0.13,0,WeatherCatV1.13B119,2013-01-29 02:29:00,
2013-01-28 21:34:00,38.8,35.3,30.06,WSW,245,1.0,2.0,87,0.00,,,0.13,0,WeatherCatV1.13B119,2013-01-29 02:34:00,
2013-01-28 21:39:00,39.3,35.8,30.06,WSW,241,2.0,3.0,87,0.00,,,0.13,0,WeatherCatV1.13B119,2013-01-29 02:39:00,
2013-01-28 21:44:00,39.7,36.2,30.06,WSW,246,2.0,3.0,87,0.00,,,0.13,0,WeatherCatV1.13B119,2013-01-29 02:44:00,
2013-01-28 21:49:00,39.6,36.1,30.06,WSW,254,0.0,3.0,87,0.00,,,0.13,0,WeatherCatV1.13B119,2013-01-29 02:49:00,
2013-01-28 21:54:00,39.5,36.0,30.06,WSW,250,2.0,3.0,87,0.00,,,0.13,0,WeatherCatV1.13B119,2013-01-29 02:54:00,
2013-01-28 21:59:00,39.6,36.1,30.06,West,278,1.0,3.0,87,0.00,,,0.13,0,WeatherCatV1.13B119,2013-01-29 02:59:00,
2013-01-28 22:04:00,39.7,36.2,30.06,WSW,248,1.0,1.0,87,0.00,,,0.13,0,WeatherCatV1.13B119,2013-01-29 03:04:00,
2013-01-28 22:09:00,40.0,36.4,30.06,WSW,252,1.0,2.0,87,0.00,,,0.13,0,WeatherCatV1.13B119,2013-01-29 03:09:00,
2013-01-28 22:14:00,40.0,36.4,30.06,WSW,256,2.0,2.0,87,0.00,,,0.13,0,WeatherCatV1.13B119,2013-01-29 03:14:00,
2013-01-28 22:19:00,39.8,36.3,30.06,West,261,1.0,3.0,87,0.00,,,0.13,0,WeatherCatV1.13B119,2013-01-29 03:19:00,
2013-01-28 22:24:00,40.0,36.4,30.06,WSW,244,2.0,3.0,87,0.00,,,0.13,0,WeatherCatV1.13B119,2013-01-29 03:24:00,
2013-01-28 22:31:00,40.8,37.2,30.06,West,266,2.0,2.0,87,0.00,,,0.13,0,WeatherCatV1.13B119,2013-01-29 03:31:00,
2013-01-28 22:36:00,40.7,37.1,30.06,WSW,258,1.0,2.0,87,0.00,,,0.13,0,WeatherCatV1.13B119,2013-01-29 03:36:00,
2013-01-28 22:41:00,40.6,37.0,30.06,WSW,258,2.0,2.0,87,0.00,,,0.13,0,WeatherCatV1.13B119,2013-01-29 03:41:00,
2013-01-28 22:46:00,40.4,36.8,30.06,West,269,1.0,2.0,87,0.00,,,0.13,0,WeatherCatV1.13B119,2013-01-29 03:46:00,
2013-01-28 22:51:00,40.6,37.0,30.06,WSW,250,1.0,3.0,87,0.00,,,0.13,0,WeatherCatV1.13B119,2013-01-29 03:51:00,
2013-01-28 22:56:00,40.9,37.3,30.07,West,261,2.0,3.0,87,0.00,,,0.13,0,WeatherCatV1.13B119,2013-01-29 03:56:00,
2013-01-28 23:01:00,40.9,37.3,30.07,West,261,0.0,2.0,87,0.00,,,0.13,0,WeatherCatV1.13B119,2013-01-29 04:01:00,
2013-01-28 23:06:00,41.0,37.4,30.06,WSW,258,1.0,1.0,87,0.00,,,0.13,0,WeatherCatV1.13B119,2013-01-29 04:06:00,
2013-01-28 23:13:00,40.9,37.3,30.06,WSW,256,0.0,2.0,87,0.00,,,0.13,0,WeatherCatV1.13B119,2013-01-29 04:13:00,
2013-01-28 23:18:00,40.7,37.1,30.06,WSW,257,1.0,2.0,87,0.00,,,0.13,0,WeatherCatV1.13B119,2013-01-29 04:18:00,
2013-01-28 23:23:00,40.8,37.2,30.07,WSW,257,1.0,2.0,87,0.00,,,0.13,0,WeatherCatV1.13B119,2013-01-29 04:23:00,
2013-01-28 23:28:00,41.0,37.4,30.07,West,276,1.0,1.0,87,0.00,,,0.13,0,WeatherCatV1.13B119,2013-01-29 04:28:00,
2013-01-28 23:33:00,41.1,37.5,30.07,West,276,0.0,1.0,87,0.00,,,0.13,0,WeatherCatV1.13B119,2013-01-29 04:33:00,
2013-01-28 23:38:00,41.3,37.7,30.07,West,276,0.0,1.0,87,0.00,,,0.13,0,WeatherCatV1.13B119,2013-01-29 04:38:00,
2013-01-28 23:43:00,41.4,37.8,30.07,West,276,0.0,1.0,87,0.00,,,0.13,0,WeatherCatV1.13B119,2013-01-29 04:43:00,
2013-01-28 23:48:00,41.3,37.7,30.07,West,276,0.0,0.0,87,0.00,,,0.13,0,WeatherCatV1.13B119,2013-01-29 04:48:00,
2013-01-28 23:53:00,41.3,37.7,30.07,West,265,1.0,2.0,87,0.00,,,0.13,0,WeatherCatV1.13B119,2013-01-29 04:53:00,
2013-01-28 23:58:00,41.2,37.6,30.07,West,262,1.0,2.0,87,0.00,,,0.13,0,WeatherCatV1.13B119,2013-01-29 04:58:00,